Harmon, Guam
Current Conditions -  °F | °C
As of 4:54 AM on Sunday 21 Dec 2014 (Local Time) from PGUM Reporting Station
Scattered Clouds Scattered Clouds  
Wind Chill: 81°   Ceiling: Unl
Heat Index: 87°   Visibility: 10mi
Dew Point: 75°   Wind: 12mph
Humidity: 82%   Direction: 70°ENE
Pressure: 29.88"   Gusts: NA
Location:  13.462°N, 144.794°E
Report Text: PGUM 201854Z 07010KT 10SM FEW022 SCT027 SCT110 27/24 A2988 RMK AO2 SLP109 OCNL LTGIC DSNT SW-NW T02720239
Loading
Personal Weather Stations






























Interactive Weather Map New forecast layout! Learn more

10-Day Weather Forecast

Advertisements
Track Severe Weather on mobile